CST,Max TemperatureF,Mean TemperatureF,Min TemperatureF,Max Dew PointF,MeanDew PointF,Min DewpointF,Max Humidity, Mean Humidity, Min Humidity, Max Sea Level PressureIn, Mean Sea Level PressureIn, Min Sea Level PressureIn, Max VisibilityMiles, Mean VisibilityMiles, Min VisibilityMiles, Max Wind SpeedMPH, Mean Wind SpeedMPH, Max Gust SpeedMPH,PrecipitationIn, CloudCover, Events, WindDirDegrees
2013-11-1,73,60,48,27,23,20,38,25,15,30.22,30.06,29.93,10,10,10,25,10,31,0.00,0,,318
2013-11-2,75,56,36,34,28,21,66,39,19,30.37,30.23,30.12,10,10,10,15,6,20,0.00,0,,115
2013-11-3,68,52,35,46,35,25,72,51,34,30.13,29.95,29.84,10,10,10,10,5,,0.00,1,,101
2013-11-4,78,60,43,52,47,39,88,62,34,29.95,29.88,29.80,10,10,10,13,3,,0.00,1,,97
2013-11-5,79,63,47,53,44,34,92,56,22,30.09,29.92,29.86,10,10,5,20,7,25,0.00,2,,277
2013-11-6,63,49,35,41,29,18,73,42,21,30.40,30.30,30.09,10,10,10,14,8,20,0.00,2,,317
2013-11-7,64,47,30,26,21,16,60,38,18,30.51,30.41,30.32,10,10,10,17,5,20,0.00,1,,102
2013-11-8,63,54,43,49,34,20,90,52,32,30.32,30.18,30.06,10,10,10,13,4,20,0.00,3,,88
2013-11-9,81,56,30,46,36,29,97,59,17,30.13,30.07,30.02,10,9,0,13,3,16,0.00,0,Fog,245
2013-11-10,73,56,39,45,39,32,84,57,32,30.32,30.21,30.13,10,10,10,10,6,,0.00,0,,344
2013-11-11,76,56,36,53,46,32,97,78,30,30.26,30.21,30.14,10,7,0,12,4,,0.00,2,Fog,54
2013-11-12,54,46,38,52,41,35,96,87,76,30.74,30.59,30.26,10,8,0,24,8,31,0.02,8,Fog-Rain,332
2013-11-13,58,45,32,34,31,26,95,64,34,30.66,30.47,30.23,10,10,7,13,5,17,0.00,2,,101
2013-11-14,74,54,35,44,36,29,83,58,30,30.22,30.03,29.90,10,10,10,18,4,22,0.00,0,,269
2013-11-15,80,57,34,52,39,31,87,57,23,29.98,29.89,29.77,10,10,5,18,3,24,0.00,1,Rain,231
2013-11-16,82,64,47,52,46,43,89,54,25,29.85,29.77,29.69,10,10,10,29,7,39,0.00,2,,219
2013-11-17,78,62,46,45,38,32,73,43,20,30.06,29.95,29.80,10,10,10,25,9,31,0.00,0,,247
2013-11-18,61,53,45,36,33,31,61,47,33,30.22,30.13,30.06,10,10,7,10,5,,0.00,1,,287
2013-11-19,77,57,37,49,37,31,79,53,27,30.14,29.99,29.86,10,10,10,8,3,,0.00,0,,43
2013-11-20,82,62,43,53,41,35,92,56,19,29.92,29.86,29.77,10,10,10,17,3,22,0.00,0,,320
2013-11-21,78,62,45,52,44,32,98,63,24,30.19,29.98,29.87,10,7,0,23,5,29,0.00,3,Fog,4
2013-11-22,47,38,30,31,28,25,94,81,53,30.56,30.47,30.21,10,8,2,20,14,28,0.00,8,,350
2013-11-23,33,31,29,32,30,26,96,94,86,30.60,30.54,30.51,10,5,2,14,8,21,0.07,8,Rain-Snow-Thunderstorm,14
2013-11-24,33,31,29,31,30,26,96,94,88,30.54,30.39,30.24,10,6,1,12,5,,0.06,8,Rain-Snow-Thunderstorm,59
2013-11-25,50,39,28,39,34,28,97,81,54,30.27,30.16,30.09,10,9,5,26,6,30,0.00,4,Rain,279
2013-11-26,52,40,28,31,27,22,91,64,32,30.46,30.39,30.27,10,10,10,20,11,17,0.00,1,,309
2013-11-27,53,39,25,32,28,23,94,71,36,30.45,30.36,30.25,10,10,10,10,4,,0.00,0,,105
2013-11-28,61,43,25,34,30,24,95,69,31,30.30,30.24,30.19,10,10,10,9,3,,0.00,0,,70
2013-11-29,61,44,27,37,33,26,95,72,39,30.38,30.29,30.22,10,10,10,9,5,,0.00,0,,10
2013-11-30,66,49,32,42,38,31,96,73,38,30.30,30.22,30.14,10,10,10,6,3,,0.00,0,,309